sensor_id;sensor_type;location;lat;lon;timestamp;pressure;altitude;pressure_sealevel;temperature;humidity
10652;BME280;5374;42.742;23.266;2023-01-26T00:00:48;95957.56;;;0.79;100.00
10652;BME280;5374;42.742;23.266;2023-01-26T00:03:35;95959.81;;;0.82;100.00
10652;BME280;5374;42.742;23.266;2023-01-26T00:06:22;95974.22;;;0.78;100.00
10652;BME280;5374;42.742;23.266;2023-01-26T00:09:12;95951.66;;;0.62;100.00
10652;BME280;5374;42.742;23.266;2023-01-26T00:12:00;95947.97;;;0.72;100.00
10652;BME280;5374;42.742;23.266;2023-01-26T00:14:48;95956.28;;;0.75;100.00
10652;BME280;5374;42.742;23.266;2023-01-26T00:17:35;95969.22;;;0.68;100.00
10652;BME280;5374;42.742;23.266;2023-01-26T00:20:23;95977.00;;;0.54;100.00
10652;BME280;5374;42.742;23.266;2023-01-26T00:23:10;95975.47;;;0.45;100.00
10652;BME280;5374;42.742;23.266;2023-01-26T00:25:57;95974.28;;;0.47;100.00
10652;BME280;5374;42.742;23.266;2023-01-26T00:28:44;95964.41;;;0.57;100.00
10652;BME280;5374;42.742;23.266;2023-01-26T00:31:33;95955.59;;;0.58;100.00
10652;BME280;5374;42.742;23.266;2023-01-26T00:34:20;95946.78;;;0.59;100.00
10652;BME280;5374;42.742;23.266;2023-01-26T00:37:09;95935.84;;;0.56;100.00
10652;BME280;5374;42.742;23.266;2023-01-26T00:39:56;95939.31;;;0.48;100.00
10652;BME280;5374;42.742;23.266;2023-01-26T00:42:44;95885.28;;;0.26;100.00
10652;BME280;5374;42.742;23.266;2023-01-26T00:45:31;95929.19;;;0.53;100.00
10652;BME280;5374;42.742;23.266;2023-01-26T00:48:19;95931.91;;;0.60;100.00
10652;BME280;5374;42.742;23.266;2023-01-26T00:51:06;95921.59;;;0.44;100.00
10652;BME280;5374;42.742;23.266;2023-01-26T00:53:53;95928.13;;;0.62;100.00
10652;BME280;5374;42.742;23.266;2023-01-26T00:56:41;95922.63;;;0.57;100.00
10652;BME280;5374;42.742;23.266;2023-01-26T00:59:28;95924.53;;;0.63;100.00
10652;BME280;5374;42.742;23.266;2023-01-26T01:02:17;95905.75;;;0.45;100.00
10652;BME280;5374;42.742;23.266;2023-01-26T01:05:06;95920.34;;;0.54;100.00
10652;BME280;5374;42.742;23.266;2023-01-26T01:07:53;95873.94;;;0.19;100.00
10652;BME280;5374;42.742;23.266;2023-01-26T01:10:40;95911.59;;;0.47;100.00
10652;BME280;5374;42.742;23.266;2023-01-26T01:13:27;95908.34;;;0.45;100.00
10652;BME280;5374;42.742;23.266;2023-01-26T01:16:15;95894.41;;;0.30;100.00
10652;BME280;5374;42.742;23.266;2023-01-26T01:19:02;95905.81;;;0.37;100.00
10652;BME280;5374;42.742;23.266;2023-01-26T01:21:51;95904.34;;;0.34;100.00
10652;BME280;5374;42.742;23.266;2023-01-26T01:24:38;95900.56;;;0.37;100.00
10652;BME280;5374;42.742;23.266;2023-01-26T01:27:25;95908.75;;;0.34;100.00
10652;BME280;5374;42.742;23.266;2023-01-26T01:30:13;95876.00;;;0.23;100.00
10652;BME280;5374;42.742;23.266;2023-01-26T01:33:02;95854.78;;;0.04;100.00
10652;BME280;5374;42.742;23.266;2023-01-26T01:35:56;95889.66;;;0.33;100.00
10652;BME280;5374;42.742;23.266;2023-01-26T01:38:45;95889.50;;;0.35;100.00
10652;BME280;5374;42.742;23.266;2023-01-26T01:41:32;95898.25;;;0.42;100.00
10652;BME280;5374;42.742;23.266;2023-01-26T01:44:21;95887.16;;;0.40;100.00
10652;BME280;5374;42.742;23.266;2023-01-26T01:47:12;95889.19;;;0.30;100.00
10652;BME280;5374;42.742;23.266;2023-01-26T01:50:04;95888.16;;;0.39;100.00
10652;BME280;5374;42.742;23.266;2023-01-26T01:52:52;95890.94;;;0.38;100.00
10652;BME280;5374;42.742;23.266;2023-01-26T01:55:42;95889.13;;;0.38;100.00
10652;BME280;5374;42.742;23.266;2023-01-26T01:58:31;95888.25;;;0.23;100.00
10652;BME280;5374;42.742;23.266;2023-01-26T02:01:20;95886.75;;;0.28;100.00
10652;BME280;5374;42.742;23.266;2023-01-26T02:04:08;95868.56;;;0.20;100.00
10652;BME280;5374;42.742;23.266;2023-01-26T02:06:57;95883.41;;;0.43;100.00
10652;BME280;5374;42.742;23.266;2023-01-26T02:09:46;95875.91;;;0.40;100.00
10652;BME280;5374;42.742;23.266;2023-01-26T02:12:54;95871.19;;;0.35;100.00
10652;BME280;5374;42.742;23.266;2023-01-26T02:15:41;95863.19;;;0.37;100.00
10652;BME280;5374;42.742;23.266;2023-01-26T02:18:29;95858.16;;;0.35;100.00
10652;BME280;5374;42.742;23.266;2023-01-26T02:21:17;95851.00;;;0.29;100.00
10652;BME280;5374;42.742;23.266;2023-01-26T02:24:10;95842.53;;;0.27;100.00
10652;BME280;5374;42.742;23.266;2023-01-26T02:27:00;95839.44;;;0.23;100.00
10652;BME280;5374;42.742;23.266;2023-01-26T02:29:48;95834.78;;;0.19;100.00
10652;BME280;5374;42.742;23.266;2023-01-26T02:32:35;95819.22;;;0.03;100.00
10652;BME280;5374;42.742;23.266;2023-01-26T02:35:22;95815.91;;;0.09;100.00
10652;BME280;5374;42.742;23.266;2023-01-26T02:38:10;95828.97;;;0.09;100.00
10652;BME280;5374;42.742;23.266;2023-01-26T02:40:59;95825.91;;;0.05;100.00
10652;BME280;5374;42.742;23.266;2023-01-26T02:43:49;95789.63;;;-0.27;100.00
10652;BME280;5374;42.742;23.266;2023-01-26T02:46:35;95824.22;;;0.12;100.00
10652;BME280;5374;42.742;23.266;2023-01-26T02:49:23;95817.72;;;0.08;100.00
10652;BME280;5374;42.742;23.266;2023-01-26T02:52:28;95816.22;;;0.14;100.00
10652;BME280;5374;42.742;23.266;2023-01-26T02:55:16;95812.31;;;0.10;100.00
10652;BME280;5374;42.742;23.266;2023-01-26T02:58:09;95809.97;;;0.00;100.00
10652;BME280;5374;42.742;23.266;2023-01-26T03:00:58;95808.78;;;0.03;100.00
10652;BME280;5374;42.742;23.266;2023-01-26T03:03:45;95806.41;;;0.16;100.00
10652;BME280;5374;42.742;23.266;2023-01-26T03:06:32;95793.00;;;0.19;100.00
10652;BME280;5374;42.742;23.266;2023-01-26T03:09:19;95792.06;;;0.12;100.00
10652;BME280;5374;42.742;23.266;2023-01-26T03:12:06;95788.84;;;0.10;100.00
10652;BME280;5374;42.742;23.266;2023-01-26T03:14:54;95796.84;;;0.08;100.00
10652;BME280;5374;42.742;23.266;2023-01-26T03:18:04;95792.38;;;0.17;100.00
10652;BME280;5374;42.742;23.266;2023-01-26T03:21:12;95787.78;;;0.19;100.00
10652;BME280;5374;42.742;23.266;2023-01-26T03:24:17;95774.97;;;0.24;100.00
10652;BME280;5374;42.742;23.266;2023-01-26T03:27:21;95772.28;;;0.17;100.00
10652;BME280;5374;42.742;23.266;2023-01-26T03:30:16;95761.84;;;0.17;100.00
10652;BME280;5374;42.742;23.266;2023-01-26T03:33:05;95762.91;;;0.08;100.00
10652;BME280;5374;42.742;23.266;2023-01-26T03:35:53;95757.50;;;0.10;100.00
10652;BME280;5374;42.742;23.266;2023-01-26T03:38:40;95768.13;;;0.23;100.00
10652;BME280;5374;42.742;23.266;2023-01-26T03:41:27;95764.34;;;0.11;100.00
10652;BME280;5374;42.742;23.266;2023-01-26T03:44:33;95762.03;;;0.16;100.00
10652;BME280;5374;42.742;23.266;2023-01-26T03:47:38;95756.81;;;0.16;100.00
10652;BME280;5374;42.742;23.266;2023-01-26T03:50:44;95728.44;;;0.13;100.00
10652;BME280;5374;42.742;23.266;2023-01-26T03:53:48;95755.47;;;0.20;100.00
10652;BME280;5374;42.742;23.266;2023-01-26T03:56:52;95755.19;;;0.15;100.00
10652;BME280;5374;42.742;23.266;2023-01-26T03:59:39;95749.50;;;0.26;100.00
10652;BME280;5374;42.742;23.266;2023-01-26T04:02:26;95750.97;;;0.28;100.00
10652;BME280;5374;42.742;23.266;2023-01-26T04:05:31;95740.97;;;0.32;100.00
10652;BME280;5374;42.742;23.266;2023-01-26T04:08:37;95740.06;;;0.25;100.00
10652;BME280;5374;42.742;23.266;2023-01-26T04:11:24;95730.41;;;0.25;100.00
10652;BME280;5374;42.742;23.266;2023-01-26T04:14:12;95738.88;;;0.27;100.00
10652;BME280;5374;42.742;23.266;2023-01-26T04:17:17;95719.16;;;0.25;100.00
10652;BME280;5374;42.742;23.266;2023-01-26T04:20:22;95714.84;;;0.32;100.00
10652;BME280;5374;42.742;23.266;2023-01-26T04:23:26;95712.41;;;0.30;100.00
10652;BME280;5374;42.742;23.266;2023-01-26T04:26:15;95697.91;;;0.28;100.00
10652;BME280;5374;42.742;23.266;2023-01-26T04:29:02;95700.81;;;0.33;100.00
10652;BME280;5374;42.742;23.266;2023-01-26T04:31:50;95691.72;;;0.29;100.00
10652;BME280;5374;42.742;23.266;2023-01-26T04:34:37;95689.03;;;0.37;100.00
10652;BME280;5374;42.742;23.266;2023-01-26T04:37:24;95689.66;;;0.39;100.00
10652;BME280;5374;42.742;23.266;2023-01-26T04:40:12;95701.38;;;0.43;100.00
10652;BME280;5374;42.742;23.266;2023-01-26T04:43:00;95708.75;;;0.40;100.00
10652;BME280;5374;42.742;23.266;2023-01-26T04:45:56;95705.69;;;0.36;100.00
10652;BME280;5374;42.742;23.266;2023-01-26T04:48:44;95707.22;;;0.45;100.00
10652;BME280;5374;42.742;23.266;2023-01-26T04:51:31;95715.84;;;0.46;100.00
10652;BME280;5374;42.742;23.266;2023-01-26T04:54:18;95706.03;;;0.48;100.00
10652;BME280;5374;42.742;23.266;2023-01-26T04:57:05;95708.00;;;0.46;100.00
10652;BME280;5374;42.742;23.266;2023-01-26T04:59:54;95699.38;;;0.45;100.00
10652;BME280;5374;42.742;23.266;2023-01-26T05:02:41;95700.19;;;0.31;100.00
10652;BME280;5374;42.742;23.266;2023-01-26T05:05:28;95699.09;;;0.40;100.00
10652;BME280;5374;42.742;23.266;2023-01-26T05:08:17;95721.63;;;0.41;100.00
10652;BME280;5374;42.742;23.266;2023-01-26T05:11:04;95694.53;;;0.42;100.00
10652;BME280;5374;42.742;23.266;2023-01-26T05:13:52;95704.94;;;0.27;100.00
10652;BME280;5374;42.742;23.266;2023-01-26T05:16:40;95666.41;;;0.15;100.00
10652;BME280;5374;42.742;23.266;2023-01-26T05:19:27;95704.75;;;0.29;100.00
10652;BME280;5374;42.742;23.266;2023-01-26T05:22:14;95672.16;;;0.25;100.00
10652;BME280;5374;42.742;23.266;2023-01-26T05:25:02;95695.03;;;0.52;100.00
10652;BME280;5374;42.742;23.266;2023-01-26T05:27:51;95692.53;;;0.59;100.00
10652;BME280;5374;42.742;23.266;2023-01-26T05:30:38;95681.97;;;0.52;100.00
10652;BME280;5374;42.742;23.266;2023-01-26T05:33:27;95689.47;;;0.55;100.00
10652;BME280;5374;42.742;23.266;2023-01-26T05:36:14;95678.59;;;0.22;100.00
10652;BME280;5374;42.742;23.266;2023-01-26T05:39:01;95693.34;;;0.45;100.00
10652;BME280;5374;42.742;23.266;2023-01-26T05:41:48;95687.75;;;0.48;100.00
10652;BME280;5374;42.742;23.266;2023-01-26T05:44:35;95667.94;;;0.39;100.00
10652;BME280;5374;42.742;23.266;2023-01-26T05:47:22;95674.41;;;0.57;100.00
10652;BME280;5374;42.742;23.266;2023-01-26T05:50:12;95676.06;;;0.44;100.00
10652;BME280;5374;42.742;23.266;2023-01-26T05:52:59;95689.81;;;0.52;100.00
10652;BME280;5374;42.742;23.266;2023-01-26T05:55:47;95693.25;;;0.53;100.00
10652;BME280;5374;42.742;23.266;2023-01-26T05:58:34;95688.13;;;0.59;100.00
10652;BME280;5374;42.742;23.266;2023-01-26T06:01:21;95665.03;;;0.48;100.00
10652;BME280;5374;42.742;23.266;2023-01-26T06:04:09;95689.56;;;0.62;100.00
10652;BME280;5374;42.742;23.266;2023-01-26T06:06:58;95688.25;;;0.73;100.00
10652;BME280;5374;42.742;23.266;2023-01-26T06:09:46;95653.16;;;0.46;100.00
10652;BME280;5374;42.742;23.266;2023-01-26T06:12:33;95671.09;;;0.63;100.00
10652;BME280;5374;42.742;23.266;2023-01-26T06:15:23;95683.94;;;0.80;100.00
10652;BME280;5374;42.742;23.266;2023-01-26T06:18:10;95685.47;;;0.89;100.00
10652;BME280;5374;42.742;23.266;2023-01-26T06:20:58;95659.59;;;0.79;100.00
10652;BME280;5374;42.742;23.266;2023-01-26T06:23:47;95663.44;;;0.62;100.00
10652;BME280;5374;42.742;23.266;2023-01-26T06:26:34;95664.94;;;0.71;100.00
10652;BME280;5374;42.742;23.266;2023-01-26T06:29:21;95660.41;;;0.80;100.00
10652;BME280;5374;42.742;23.266;2023-01-26T06:32:09;95647.97;;;0.82;100.00
10652;BME280;5374;42.742;23.266;2023-01-26T06:34:56;95663.16;;;0.93;100.00
10652;BME280;5374;42.742;23.266;2023-01-26T06:37:43;95660.69;;;0.85;100.00
10652;BME280;5374;42.742;23.266;2023-01-26T06:40:34;95663.03;;;0.80;100.00
10652;BME280;5374;42.742;23.266;2023-01-26T06:43:22;95653.97;;;0.97;100.00
10652;BME280;5374;42.742;23.266;2023-01-26T06:46:09;95657.75;;;0.94;100.00
10652;BME280;5374;42.742;23.266;2023-01-26T06:48:56;95647.31;;;0.94;100.00
10652;BME280;5374;42.742;23.266;2023-01-26T06:51:46;95654.91;;;0.89;100.00
10652;BME280;5374;42.742;23.266;2023-01-26T06:54:34;95630.31;;;0.84;100.00
10652;BME280;5374;42.742;23.266;2023-01-26T06:57:28;95592.03;;;0.76;100.00
10652;BME280;5374;42.742;23.266;2023-01-26T07:00:16;95636.75;;;1.02;100.00
10652;BME280;5374;42.742;23.266;2023-01-26T07:03:04;95643.06;;;0.93;100.00
10652;BME280;5374;42.742;23.266;2023-01-26T07:05:51;95639.63;;;0.93;100.00
10652;BME280;5374;42.742;23.266;2023-01-26T07:08:41;95655.41;;;0.99;100.00
10652;BME280;5374;42.742;23.266;2023-01-26T07:11:28;95649.38;;;0.99;100.00
10652;BME280;5374;42.742;23.266;2023-01-26T07:14:18;95636.84;;;0.94;100.00
10652;BME280;5374;42.742;23.266;2023-01-26T07:17:05;95637.66;;;0.95;100.00
10652;BME280;5374;42.742;23.266;2023-01-26T07:19:52;95636.75;;;1.02;100.00
10652;BME280;5374;42.742;23.266;2023-01-26T07:22:39;95641.25;;;0.94;100.00
10652;BME280;5374;42.742;23.266;2023-01-26T07:25:27;95634.94;;;1.03;100.00
10652;BME280;5374;42.742;23.266;2023-01-26T07:28:14;95630.44;;;1.18;100.00
10652;BME280;5374;42.742;23.266;2023-01-26T07:31:03;95640.00;;;1.26;100.00
10652;BME280;5374;42.742;23.266;2023-01-26T07:33:51;95622.25;;;1.21;100.00
10652;BME280;5374;42.742;23.266;2023-01-26T07:36:38;95622.56;;;1.33;100.00
10652;BME280;5374;42.742;23.266;2023-01-26T07:39:25;95631.53;;;1.24;100.00
10652;BME280;5374;42.742;23.266;2023-01-26T07:42:12;95632.78;;;1.28;100.00
10652;BME280;5374;42.742;23.266;2023-01-26T07:44:59;95586.97;;;1.11;100.00
10652;BME280;5374;42.742;23.266;2023-01-26T07:47:48;95617.38;;;1.40;100.00
10652;BME280;5374;42.742;23.266;2023-01-26T07:50:35;95625.19;;;1.33;100.00
10652;BME280;5374;42.742;23.266;2023-01-26T07:53:22;95613.66;;;1.27;100.00
10652;BME280;5374;42.742;23.266;2023-01-26T07:56:12;95630.59;;;1.31;100.00
10652;BME280;5374;42.742;23.266;2023-01-26T07:59:00;95636.19;;;1.28;100.00
10652;BME280;5374;42.742;23.266;2023-01-26T08:01:48;95636.06;;;1.36;100.00
10652;BME280;5374;42.742;23.266;2023-01-26T08:04:36;95616.72;;;1.31;100.00
10652;BME280;5374;42.742;23.266;2023-01-26T08:07:24;95604.56;;;1.23;100.00
10652;BME280;5374;42.742;23.266;2023-01-26T08:10:11;95616.75;;;1.37;100.00
10652;BME280;5374;42.742;23.266;2023-01-26T08:12:59;95584.16;;;1.40;100.00
10652;BME280;5374;42.742;23.266;2023-01-26T08:15:47;95594.41;;;1.35;100.00
10652;BME280;5374;42.742;23.266;2023-01-26T08:18:34;95589.84;;;1.44;100.00
10652;BME280;5374;42.742;23.266;2023-01-26T08:21:22;95580.94;;;1.38;100.00
10652;BME280;5374;42.742;23.266;2023-01-26T08:24:10;95593.78;;;1.61;100.00
10652;BME280;5374;42.742;23.266;2023-01-26T08:26:57;95628.00;;;1.59;100.00
10652;BME280;5374;42.742;23.266;2023-01-26T08:29:45;95585.94;;;1.61;100.00
10652;BME280;5374;42.742;23.266;2023-01-26T08:32:32;95535.38;;;1.26;100.00
10652;BME280;5374;42.742;23.266;2023-01-26T08:35:19;95538.63;;;1.28;100.00
10652;BME280;5374;42.742;23.266;2023-01-26T08:38:08;95580.00;;;1.74;100.00
10652;BME280;5374;42.742;23.266;2023-01-26T08:40:55;95583.25;;;1.82;100.00
10652;BME280;5374;42.742;23.266;2023-01-26T08:43:42;95584.13;;;1.89;100.00
10652;BME280;5374;42.742;23.266;2023-01-26T08:46:29;95581.75;;;1.94;100.00
10652;BME280;5374;42.742;23.266;2023-01-26T08:49:16;95565.22;;;1.94;100.00
10652;BME280;5374;42.742;23.266;2023-01-26T08:52:03;95573.75;;;2.02;100.00
10652;BME280;5374;42.742;23.266;2023-01-26T08:54:52;95572.50;;;1.98;100.00
10652;BME280;5374;42.742;23.266;2023-01-26T08:57:39;95597.91;;;2.04;100.00
10652;BME280;5374;42.742;23.266;2023-01-26T09:00:26;95591.56;;;2.20;100.00
10652;BME280;5374;42.742;23.266;2023-01-26T09:03:14;95578.91;;;2.24;100.00
10652;BME280;5374;42.742;23.266;2023-01-26T09:06:01;95568.19;;;2.19;100.00
10652;BME280;5374;42.742;23.266;2023-01-26T09:08:49;95587.97;;;2.28;100.00
10652;BME280;5374;42.742;23.266;2023-01-26T09:11:37;95576.66;;;2.21;100.00
10652;BME280;5374;42.742;23.266;2023-01-26T09:14:25;95584.75;;;2.26;100.00
10652;BME280;5374;42.742;23.266;2023-01-26T09:17:12;95573.44;;;2.19;100.00
10652;BME280;5374;42.742;23.266;2023-01-26T09:19:59;95571.41;;;2.21;100.00
10652;BME280;5374;42.742;23.266;2023-01-26T09:22:46;95548.97;;;2.05;100.00
10652;BME280;5374;42.742;23.266;2023-01-26T09:25:35;95568.59;;;2.22;100.00
10652;BME280;5374;42.742;23.266;2023-01-26T09:28:24;95561.75;;;2.28;100.00
10652;BME280;5374;42.742;23.266;2023-01-26T09:31:11;95555.72;;;2.27;100.00
10652;BME280;5374;42.742;23.266;2023-01-26T09:33:59;95525.59;;;2.03;100.00
10652;BME280;5374;42.742;23.266;2023-01-26T09:36:46;95541.00;;;2.20;100.00
10652;BME280;5374;42.742;23.266;2023-01-26T09:39:33;95508.88;;;2.04;100.00
10652;BME280;5374;42.742;23.266;2023-01-26T09:42:31;95489.72;;;1.97;100.00
10652;BME280;5374;42.742;23.266;2023-01-26T09:45:29;95535.97;;;2.31;100.00
10652;BME280;5374;42.742;23.266;2023-01-26T09:48:26;95529.13;;;2.24;100.00
10652;BME280;5374;42.742;23.266;2023-01-26T09:51:20;95543.84;;;2.25;100.00
10652;BME280;5374;42.742;23.266;2023-01-26T09:54:16;95537.78;;;2.31;100.00
10652;BME280;5374;42.742;23.266;2023-01-26T09:57:11;95521.78;;;2.06;100.00
10652;BME280;5374;42.742;23.266;2023-01-26T10:00:06;95513.34;;;2.11;100.00
10652;BME280;5374;42.742;23.266;2023-01-26T10:03:07;95515.38;;;2.15;100.00
10652;BME280;5374;42.742;23.266;2023-01-26T10:06:01;95503.63;;;2.04;100.00
10652;BME280;5374;42.742;23.266;2023-01-26T10:08:52;95515.72;;;1.99;100.00
10652;BME280;5374;42.742;23.266;2023-01-26T10:11:42;95509.28;;;2.08;100.00
10652;BME280;5374;42.742;23.266;2023-01-26T10:14:34;95522.66;;;2.20;100.00
10652;BME280;5374;42.742;23.266;2023-01-26T10:17:28;95489.75;;;2.11;100.00
10652;BME280;5374;42.742;23.266;2023-01-26T10:20:23;95507.00;;;2.39;100.00
10652;BME280;5374;42.742;23.266;2023-01-26T10:23:15;95496.53;;;2.39;100.00
10652;BME280;5374;42.742;23.266;2023-01-26T10:26:11;95496.50;;;2.33;100.00
10652;BME280;5374;42.742;23.266;2023-01-26T10:28:59;95468.25;;;2.22;100.00
10652;BME280;5374;42.742;23.266;2023-01-26T10:31:46;95461.03;;;2.37;100.00
10652;BME280;5374;42.742;23.266;2023-01-26T10:34:33;95463.28;;;2.40;100.00
10652;BME280;5374;42.742;23.266;2023-01-26T10:37:25;95444.53;;;2.43;100.00
10652;BME280;5374;42.742;23.266;2023-01-26T10:40:14;95434.88;;;2.57;100.00
10652;BME280;5374;42.742;23.266;2023-01-26T10:43:02;95419.94;;;2.51;100.00
10652;BME280;5374;42.742;23.266;2023-01-26T10:45:49;95425.63;;;2.67;100.00
10652;BME280;5374;42.742;23.266;2023-01-26T10:48:36;95417.53;;;2.82;100.00
10652;BME280;5374;42.742;23.266;2023-01-26T10:51:26;95399.38;;;2.81;100.00
10652;BME280;5374;42.742;23.266;2023-01-26T10:54:19;95407.06;;;2.89;100.00
10652;BME280;5374;42.742;23.266;2023-01-26T10:57:24;95406.84;;;2.84;100.00
10652;BME280;5374;42.742;23.266;2023-01-26T11:00:23;95392.13;;;2.89;100.00
10652;BME280;5374;42.742;23.266;2023-01-26T11:03:17;95378.00;;;2.84;100.00
10652;BME280;5374;42.742;23.266;2023-01-26T11:06:05;95372.78;;;2.84;100.00
10652;BME280;5374;42.742;23.266;2023-01-26T11:08:53;95364.69;;;2.85;100.00
10652;BME280;5374;42.742;23.266;2023-01-26T11:11:54;95360.28;;;2.86;100.00
10652;BME280;5374;42.742;23.266;2023-01-26T11:14:58;95352.81;;;2.89;100.00
10652;BME280;5374;42.742;23.266;2023-01-26T11:17:50;95348.16;;;2.85;100.00
10652;BME280;5374;42.742;23.266;2023-01-26T11:20:46;95349.78;;;2.72;100.00
10652;BME280;5374;42.742;23.266;2023-01-26T11:23:47;95350.38;;;2.74;100.00
10652;BME280;5374;42.742;23.266;2023-01-26T11:30:46;95311.28;;;2.60;100.00
10652;BME280;5374;42.742;23.266;2023-01-26T11:33:44;95323.56;;;2.72;100.00
10652;BME280;5374;42.742;23.266;2023-01-26T11:36:42;95325.19;;;2.80;100.00
10652;BME280;5374;42.742;23.266;2023-01-26T11:39:41;95319.13;;;2.73;100.00
10652;BME280;5374;42.742;23.266;2023-01-26T11:42:37;95319.72;;;2.82;100.00
10652;BME280;5374;42.742;23.266;2023-01-26T11:45:33;95305.81;;;2.81;100.00
10652;BME280;5374;42.742;23.266;2023-01-26T11:48:28;95306.63;;;2.88;100.00
10652;BME280;5374;42.742;23.266;2023-01-26T11:51:27;95309.03;;;2.90;100.00
10652;BME280;5374;42.742;23.266;2023-01-26T11:54:48;95301.97;;;2.90;100.00
10652;BME280;5374;42.742;23.266;2023-01-26T11:57:48;95315.69;;;2.86;100.00
10652;BME280;5374;42.742;23.266;2023-01-26T12:00:40;95264.31;;;2.58;100.00
10652;BME280;5374;42.742;23.266;2023-01-26T12:03:34;95285.88;;;2.67;100.00
10652;BME280;5374;42.742;23.266;2023-01-26T12:06:30;95291.53;;;2.70;100.00
10652;BME280;5374;42.742;23.266;2023-01-26T12:09:24;95281.25;;;2.62;100.00
10652;BME280;5374;42.742;23.266;2023-01-26T12:12:22;95278.81;;;2.61;100.00
10652;BME280;5374;42.742;23.266;2023-01-26T12:15:16;95271.97;;;2.60;100.00
10652;BME280;5374;42.742;23.266;2023-01-26T12:18:11;95257.25;;;2.59;100.00
10652;BME280;5374;42.742;23.266;2023-01-26T12:21:07;95266.13;;;2.64;100.00
10652;BME280;5374;42.742;23.266;2023-01-26T12:23:59;95261.09;;;2.69;100.00
10652;BME280;5374;42.742;23.266;2023-01-26T12:26:51;95234.28;;;2.54;100.00
10652;BME280;5374;42.742;23.266;2023-01-26T12:29:44;95256.41;;;2.71;100.00
10652;BME280;5374;42.742;23.266;2023-01-26T12:32:34;95249.41;;;2.52;100.00
10652;BME280;5374;42.742;23.266;2023-01-26T12:35:30;95248.59;;;2.52;100.00
10652;BME280;5374;42.742;23.266;2023-01-26T12:38:29;95181.75;;;2.16;100.00
10652;BME280;5374;42.742;23.266;2023-01-26T12:41:30;95215.56;;;2.44;100.00
10652;BME280;5374;42.742;23.266;2023-01-26T12:44:27;95231.47;;;2.49;100.00
10652;BME280;5374;42.742;23.266;2023-01-26T12:47:23;95236.13;;;2.40;100.00
10652;BME280;5374;42.742;23.266;2023-01-26T12:50:23;95216.78;;;2.28;100.00
10652;BME280;5374;42.742;23.266;2023-01-26T12:53:15;95180.75;;;2.17;100.00
10652;BME280;5374;42.742;23.266;2023-01-26T12:56:10;95212.75;;;2.39;100.00
10652;BME280;5374;42.742;23.266;2023-01-26T12:59:12;95225.41;;;2.55;100.00
10652;BME280;5374;42.742;23.266;2023-01-26T13:02:09;95229.63;;;2.56;100.00
10652;BME280;5374;42.742;23.266;2023-01-26T13:05:04;95201.81;;;2.55;100.00
10652;BME280;5374;42.742;23.266;2023-01-26T13:07:54;95205.03;;;2.57;100.00
10652;BME280;5374;42.742;23.266;2023-01-26T13:10:43;95207.88;;;2.56;100.00
10652;BME280;5374;42.742;23.266;2023-01-26T13:13:33;95202.00;;;2.67;100.00
10652;BME280;5374;42.742;23.266;2023-01-26T13:16:33;95213.09;;;2.69;100.00
10652;BME280;5374;42.742;23.266;2023-01-26T13:19:35;95193.97;;;2.55;100.00
10652;BME280;5374;42.742;23.266;2023-01-26T13:22:37;95209.22;;;2.71;100.00
10652;BME280;5374;42.742;23.266;2023-01-26T13:25:29;95186.28;;;2.60;100.00
10652;BME280;5374;42.742;23.266;2023-01-26T13:28:26;95210.63;;;2.74;100.00
10652;BME280;5374;42.742;23.266;2023-01-26T13:31:29;95203.97;;;2.78;100.00
10652;BME280;5374;42.742;23.266;2023-01-26T13:34:23;95190.72;;;2.60;100.00
10652;BME280;5374;42.742;23.266;2023-01-26T13:37:15;95161.16;;;2.46;100.00
10652;BME280;5374;42.742;23.266;2023-01-26T13:40:14;95194.75;;;2.62;100.00
10652;BME280;5374;42.742;23.266;2023-01-26T13:43:12;95187.69;;;2.63;100.00
10652;BME280;5374;42.742;23.266;2023-01-26T13:46:09;95194.09;;;2.73;100.00
10652;BME280;5374;42.742;23.266;2023-01-26T13:48:58;95203.34;;;2.83;100.00
10652;BME280;5374;42.742;23.266;2023-01-26T13:51:46;95210.03;;;2.79;100.00
10652;BME280;5374;42.742;23.266;2023-01-26T13:54:34;95163.13;;;2.51;100.00
10652;BME280;5374;42.742;23.266;2023-01-26T13:57:24;95214.47;;;2.78;100.00
10652;BME280;5374;42.742;23.266;2023-01-26T14:00:14;95189.72;;;2.61;100.00
10652;BME280;5374;42.742;23.266;2023-01-26T14:03:03;95174.38;;;2.64;100.00
10652;BME280;5374;42.742;23.266;2023-01-26T14:05:52;95124.47;;;2.39;100.00
10652;BME280;5374;42.742;23.266;2023-01-26T14:08:43;95181.44;;;2.70;100.00
10652;BME280;5374;42.742;23.266;2023-01-26T14:11:32;95161.84;;;2.73;100.00
10652;BME280;5374;42.742;23.266;2023-01-26T14:14:24;95155.22;;;2.70;100.00
10652;BME280;5374;42.742;23.266;2023-01-26T14:17:24;95147.75;;;2.67;100.00
10652;BME280;5374;42.742;23.266;2023-01-26T14:20:23;95161.44;;;2.76;100.00
10652;BME280;5374;42.742;23.266;2023-01-26T14:23:12;95165.44;;;2.85;100.00
10652;BME280;5374;42.742;23.266;2023-01-26T14:26:02;95158.19;;;2.81;100.00
10652;BME280;5374;42.742;23.266;2023-01-26T14:28:51;95169.06;;;2.91;100.00
10652;BME280;5374;42.742;23.266;2023-01-26T14:31:38;95122.78;;;2.58;100.00
10652;BME280;5374;42.742;23.266;2023-01-26T14:34:51;95158.25;;;2.67;100.00
10652;BME280;5374;42.742;23.266;2023-01-26T14:37:40;95154.63;;;2.62;100.00
10652;BME280;5374;42.742;23.266;2023-01-26T14:40:28;95092.28;;;2.26;100.00
10652;BME280;5374;42.742;23.266;2023-01-26T14:43:16;95144.97;;;2.49;100.00
10652;BME280;5374;42.742;23.266;2023-01-26T14:46:06;95147.06;;;2.34;100.00
10652;BME280;5374;42.742;23.266;2023-01-26T14:48:58;95171.03;;;2.37;100.00
10652;BME280;5374;42.742;23.266;2023-01-26T14:51:53;95144.25;;;2.29;100.00
10652;BME280;5374;42.742;23.266;2023-01-26T14:54:42;95126.94;;;2.15;100.00
10652;BME280;5374;42.742;23.266;2023-01-26T14:57:33;95156.13;;;2.38;100.00
10652;BME280;5374;42.742;23.266;2023-01-26T15:00:24;95154.91;;;2.34;100.00
10652;BME280;5374;42.742;23.266;2023-01-26T15:03:18;95155.31;;;2.31;100.00
10652;BME280;5374;42.742;23.266;2023-01-26T15:06:17;95157.13;;;2.30;100.00
10652;BME280;5374;42.742;23.266;2023-01-26T15:09:20;95137.44;;;2.15;100.00